sensor_id;sensor_type;location;lat;lon;timestamp;temperature;humidity
14154;DHT22;7157;53.144;7.570;2023-05-07T00:05:44;12.64;99.05
14154;DHT22;7157;53.144;7.570;2023-05-07T00:15:47;12.62;99.05
14154;DHT22;7157;53.144;7.570;2023-05-07T00:25:52;12.61;98.90
14154;DHT22;7157;53.144;7.570;2023-05-07T00:35:54;12.59;98.90
14154;DHT22;7157;53.144;7.570;2023-05-07T00:45:59;12.67;98.85
14154;DHT22;7157;53.144;7.570;2023-05-07T00:56:02;12.72;98.58
14154;DHT22;7157;53.144;7.570;2023-05-07T01:06:07;12.60;98.68
14154;DHT22;7157;53.144;7.570;2023-05-07T01:16:10;12.46;98.68
14154;DHT22;7157;53.144;7.570;2023-05-07T01:26:14;12.48;98.26
14154;DHT22;7157;53.144;7.570;2023-05-07T01:36:18;12.40;98.08
14154;DHT22;7157;53.144;7.570;2023-05-07T01:46:24;12.31;98.42
14154;DHT22;7157;53.144;7.570;2023-05-07T01:56:28;12.25;98.69
14154;DHT22;7157;53.144;7.570;2023-05-07T02:06:33;12.37;98.22
14154;DHT22;7157;53.144;7.570;2023-05-07T02:16:36;12.08;98.25
14154;DHT22;7157;53.144;7.570;2023-05-07T02:26:40;12.01;98.23
14154;DHT22;7157;53.144;7.570;2023-05-07T02:36:43;11.92;98.13
14154;DHT22;7157;53.144;7.570;2023-05-07T02:46:48;11.91;97.85
14154;DHT22;7157;53.144;7.570;2023-05-07T02:56:51;11.71;97.90
14154;DHT22;7157;53.144;7.570;2023-05-07T03:06:55;11.67;97.90
14154;DHT22;7157;53.144;7.570;2023-05-07T03:16:58;11.56;98.19
14154;DHT22;7157;53.144;7.570;2023-05-07T03:27:02;11.55;98.38
14154;DHT22;7157;53.144;7.570;2023-05-07T03:37:04;11.48;98.14
14154;DHT22;7157;53.144;7.570;2023-05-07T03:47:08;11.46;98.64
14154;DHT22;7157;53.144;7.570;2023-05-07T03:57:11;11.29;98.74
14154;DHT22;7157;53.144;7.570;2023-05-07T04:07:15;11.39;98.06
14154;DHT22;7157;53.144;7.570;2023-05-07T04:17:18;11.20;98.61
14154;DHT22;7157;53.144;7.570;2023-05-07T04:27:22;11.19;98.53
14154;DHT22;7157;53.144;7.570;2023-05-07T04:37:25;11.20;98.63
14154;DHT22;7157;53.144;7.570;2023-05-07T04:47:30;11.17;98.29
14154;DHT22;7157;53.144;7.570;2023-05-07T04:57:32;11.26;97.55
14154;DHT22;7157;53.144;7.570;2023-05-07T05:07:37;11.17;98.11
14154;DHT22;7157;53.144;7.570;2023-05-07T05:17:39;11.33;97.82
14154;DHT22;7157;53.144;7.570;2023-05-07T05:27:45;11.28;97.54
14154;DHT22;7157;53.144;7.570;2023-05-07T05:37:47;11.42;96.76
14154;DHT22;7157;53.144;7.570;2023-05-07T05:47:52;11.46;96.87
14154;DHT22;7157;53.144;7.570;2023-05-07T05:57:55;11.38;96.76
14154;DHT22;7157;53.144;7.570;2023-05-07T06:07:59;11.64;96.17
14154;DHT22;7157;53.144;7.570;2023-05-07T06:18:02;11.45;96.29
14154;DHT22;7157;53.144;7.570;2023-05-07T06:28:07;11.64;95.45
14154;DHT22;7157;53.144;7.570;2023-05-07T06:38:12;11.74;95.52
14154;DHT22;7157;53.144;7.570;2023-05-07T06:48:16;11.70;95.00
14154;DHT22;7157;53.144;7.570;2023-05-07T06:58:19;11.90;94.79
14154;DHT22;7157;53.144;7.570;2023-05-07T07:08:23;12.02;94.20
14154;DHT22;7157;53.144;7.570;2023-05-07T07:18:25;12.22;93.59
14154;DHT22;7157;53.144;7.570;2023-05-07T07:28:30;12.36;92.61
14154;DHT22;7157;53.144;7.570;2023-05-07T07:38:32;12.44;92.23
14154;DHT22;7157;53.144;7.570;2023-05-07T07:48:36;12.51;91.72
14154;DHT22;7157;53.144;7.570;2023-05-07T07:58:39;12.91;90.64
14154;DHT22;7157;53.144;7.570;2023-05-07T08:08:43;12.96;90.16
14154;DHT22;7157;53.144;7.570;2023-05-07T08:18:46;13.00;89.94
14154;DHT22;7157;53.144;7.570;2023-05-07T08:28:50;13.18;89.75
14154;DHT22;7157;53.144;7.570;2023-05-07T08:38:52;13.23;89.39
14154;DHT22;7157;53.144;7.570;2023-05-07T08:48:57;13.68;88.46
14154;DHT22;7157;53.144;7.570;2023-05-07T08:59:01;13.76;88.43
14154;DHT22;7157;53.144;7.570;2023-05-07T09:09:06;13.97;86.89
14154;DHT22;7157;53.144;7.570;2023-05-07T09:19:09;15.16;84.32
14154;DHT22;7157;53.144;7.570;2023-05-07T09:29:13;15.77;83.29
14154;DHT22;7157;53.144;7.570;2023-05-07T09:39:18;15.54;82.03
14154;DHT22;7157;53.144;7.570;2023-05-07T09:49:23;15.78;80.01
14154;DHT22;7157;53.144;7.570;2023-05-07T09:59:27;15.77;80.49
14154;DHT22;7157;53.144;7.570;2023-05-07T10:09:32;16.13;79.16
14154;DHT22;7157;53.144;7.570;2023-05-07T10:19:36;16.33;75.44
14154;DHT22;7157;53.144;7.570;2023-05-07T10:29:47;16.71;74.27
14154;DHT22;7157;53.144;7.570;2023-05-07T10:39:52;17.29;73.75
14154;DHT22;7157;53.144;7.570;2023-05-07T10:50:24;18.39;69.94
14154;DHT22;7157;53.144;7.570;2023-05-07T11:00:42;18.47;68.12
14154;DHT22;7157;53.144;7.570;2023-05-07T11:10:51;19.63;64.85
14154;DHT22;7157;53.144;7.570;2023-05-07T11:20:56;19.44;64.24
14154;DHT22;7157;53.144;7.570;2023-05-07T11:31:02;20.49;60.13
14154;DHT22;7157;53.144;7.570;2023-05-07T11:41:06;21.37;55.60
14154;DHT22;7157;53.144;7.570;2023-05-07T11:51:11;25.04;48.12
14154;DHT22;7157;53.144;7.570;2023-05-07T12:01:15;23.06;51.23
14154;DHT22;7157;53.144;7.570;2023-05-07T12:11:24;25.10;46.83
14154;DHT22;7157;53.144;7.570;2023-05-07T12:21:27;28.15;40.53
14154;DHT22;7157;53.144;7.570;2023-05-07T12:31:31;29.74;34.88
14154;DHT22;7157;53.144;7.570;2023-05-07T12:41:36;30.28;32.64
14154;DHT22;7157;53.144;7.570;2023-05-07T12:51:55;29.12;36.27
14154;DHT22;7157;53.144;7.570;2023-05-07T13:01:58;30.21;31.83
14154;DHT22;7157;53.144;7.570;2023-05-07T13:12:03;29.29;34.83
14154;DHT22;7157;53.144;7.570;2023-05-07T13:22:06;29.32;33.81
14154;DHT22;7157;53.144;7.570;2023-05-07T13:32:10;29.58;33.46
14154;DHT22;7157;53.144;7.570;2023-05-07T13:42:13;29.38;33.85
14154;DHT22;7157;53.144;7.570;2023-05-07T13:52:17;28.01;36.92
14154;DHT22;7157;53.144;7.570;2023-05-07T14:02:20;25.79;41.57
14154;DHT22;7157;53.144;7.570;2023-05-07T14:12:24;25.17;43.13
14154;DHT22;7157;53.144;7.570;2023-05-07T14:22:27;24.78;45.28
14154;DHT22;7157;53.144;7.570;2023-05-07T14:32:32;24.72;44.74
14154;DHT22;7157;53.144;7.570;2023-05-07T14:42:34;25.25;43.45
14154;DHT22;7157;53.144;7.570;2023-05-07T14:52:38;24.36;45.56
14154;DHT22;7157;53.144;7.570;2023-05-07T15:02:41;23.99;47.02
14154;DHT22;7157;53.144;7.570;2023-05-07T15:12:45;23.88;46.29
14154;DHT22;7157;53.144;7.570;2023-05-07T15:22:48;24.44;46.64
14154;DHT22;7157;53.144;7.570;2023-05-07T15:32:52;23.98;46.05
14154;DHT22;7157;53.144;7.570;2023-05-07T15:42:55;24.86;43.80
14154;DHT22;7157;53.144;7.570;2023-05-07T15:52:59;23.37;47.00
14154;DHT22;7157;53.144;7.570;2023-05-07T16:03:02;21.76;50.82
14154;DHT22;7157;53.144;7.570;2023-05-07T16:13:07;21.28;52.79
14154;DHT22;7157;53.144;7.570;2023-05-07T16:23:10;21.25;53.42
14154;DHT22;7157;53.144;7.570;2023-05-07T16:33:15;22.29;51.00
14154;DHT22;7157;53.144;7.570;2023-05-07T16:43:17;22.29;51.54
14154;DHT22;7157;53.144;7.570;2023-05-07T16:53:21;20.55;54.30
14154;DHT22;7157;53.144;7.570;2023-05-07T17:03:24;19.68;57.48
14154;DHT22;7157;53.144;7.570;2023-05-07T17:13:28;19.45;58.55
14154;DHT22;7157;53.144;7.570;2023-05-07T17:23:31;19.15;59.97
14154;DHT22;7157;53.144;7.570;2023-05-07T17:33:35;19.31;59.22
14154;DHT22;7157;53.144;7.570;2023-05-07T17:43:38;19.26;58.67
14154;DHT22;7157;53.144;7.570;2023-05-07T17:53:42;18.82;59.73
14154;DHT22;7157;53.144;7.570;2023-05-07T18:03:45;18.94;58.83
14154;DHT22;7157;53.144;7.570;2023-05-07T18:13:49;18.13;61.99
14154;DHT22;7157;53.144;7.570;2023-05-07T18:23:52;17.88;64.24
14154;DHT22;7157;53.144;7.570;2023-05-07T18:33:56;17.52;66.36
14154;DHT22;7157;53.144;7.570;2023-05-07T18:43:58;17.20;67.84
14154;DHT22;7157;53.144;7.570;2023-05-07T18:54:02;16.50;69.49
14154;DHT22;7157;53.144;7.570;2023-05-07T19:04:05;16.19;69.61
14154;DHT22;7157;53.144;7.570;2023-05-07T19:14:09;15.92;70.81
14154;DHT22;7157;53.144;7.570;2023-05-07T19:24:12;15.70;72.27
14154;DHT22;7157;53.144;7.570;2023-05-07T19:34:16;15.54;73.25
14154;DHT22;7157;53.144;7.570;2023-05-07T19:44:19;15.40;74.13
14154;DHT22;7157;53.144;7.570;2023-05-07T19:54:23;15.30;73.57
14154;DHT22;7157;53.144;7.570;2023-05-07T20:04:26;15.16;73.44
14154;DHT22;7157;53.144;7.570;2023-05-07T20:14:34;14.99;73.25
14154;DHT22;7157;53.144;7.570;2023-05-07T20:24:37;14.84;73.51
14154;DHT22;7157;53.144;7.570;2023-05-07T20:34:43;14.75;74.04
14154;DHT22;7157;53.144;7.570;2023-05-07T20:44:47;14.70;73.65
14154;DHT22;7157;53.144;7.570;2023-05-07T20:54:51;14.56;73.73
14154;DHT22;7157;53.144;7.570;2023-05-07T21:04:54;14.34;74.99
14154;DHT22;7157;53.144;7.570;2023-05-07T21:14:59;14.35;74.27
14154;DHT22;7157;53.144;7.570;2023-05-07T21:25:03;14.15;75.26
14154;DHT22;7157;53.144;7.570;2023-05-07T21:35:08;14.12;75.41
14154;DHT22;7157;53.144;7.570;2023-05-07T21:45:11;13.99;75.92
14154;DHT22;7157;53.144;7.570;2023-05-07T21:55:16;13.83;76.70
14154;DHT22;7157;53.144;7.570;2023-05-07T22:05:19;13.62;77.63
14154;DHT22;7157;53.144;7.570;2023-05-07T22:15:23;13.41;79.11
14154;DHT22;7157;53.144;7.570;2023-05-07T22:25:26;13.32;79.21
14154;DHT22;7157;53.144;7.570;2023-05-07T22:35:34;13.26;79.16
14154;DHT22;7157;53.144;7.570;2023-05-07T22:45:37;13.18;79.14
14154;DHT22;7157;53.144;7.570;2023-05-07T22:55:41;13.10;79.18
14154;DHT22;7157;53.144;7.570;2023-05-07T23:05:44;13.08;79.11
14154;DHT22;7157;53.144;7.570;2023-05-07T23:15:48;12.99;79.37
14154;DHT22;7157;53.144;7.570;2023-05-07T23:25:51;12.93;79.82
14154;DHT22;7157;53.144;7.570;2023-05-07T23:36:02;12.97;79.68
14154;DHT22;7157;53.144;7.570;2023-05-07T23:46:05;12.93;79.83
14154;DHT22;7157;53.144;7.570;2023-05-07T23:56:09;13.05;79.30
